Time;durP1;ratioP1;P1;durP2;ratioP2;P2;SDS_P1;SDS_P2;PMS_P1;PMS_P2;Temp;Humidity;BMP_temperature;BMP_pressure;BME280_temperature;BME280_humidity;BME280_pressure;Samples;Min_cycle;Max_cycle;Signal;HPM_P1;HPM_P2
2022/05/23 00:01:41;;;;;;;;;2.50;2.50;;;;;;;;5125814;27;61987;-78
2022/05/23 00:04:06;;;;;;;;;4.00;3.00;;;;;;;;5125842;27;61908;-79
2022/05/23 00:06:32;;;;;;;;;3.00;1.00;;;;;;;;5125505;27;62044;-79
2022/05/23 00:08:57;;;;;;;;;4.67;4.67;;;;;;;;5124588;27;62633;-79
2022/05/23 00:11:22;;;;;;;;;5.00;3.00;;;;;;;;5125668;27;61812;-79
2022/05/23 00:13:48;;;;;;;;;2.75;2.75;;;;;;;;5125419;27;61857;-79
2022/05/23 00:16:17;;;;;;;;;2.50;2.50;;;;;;;;5124545;27;61832;-78
2022/05/23 00:18:42;;;;;;;;;4.75;2.00;;;;;;;;5124919;27;61668;-78
2022/05/23 00:21:07;;;;;;;;;3.00;3.00;;;;;;;;5123648;27;62774;-79
2022/05/23 00:23:33;;;;;;;;;5.00;2.00;;;;;;;;5125639;27;61845;-78
2022/05/23 00:25:58;;;;;;;;;2.25;2.00;;;;;;;;5125640;27;61902;-78
2022/05/23 00:28:23;;;;;;;;;5.00;4.00;;;;;;;;5124802;27;61831;-78
2022/05/23 00:30:49;;;;;;;;;3.50;3.25;;;;;;;;5125404;27;61831;-79
2022/05/23 00:35:58;;;;;;;;;2.00;2.00;;;;;;;;5125045;27;61839;-78
2022/05/23 00:38:23;;;;;;;;;3.50;2.50;;;;;;;;5124435;27;61926;-78
2022/05/23 00:43:50;;;;;;;;;3.25;3.00;;;;;;;;5125207;27;62020;-79
2022/05/23 00:46:15;;;;;;;;;4.00;2.50;;;;;;;;5125352;27;61842;-79
2022/05/23 00:48:40;;;;;;;;;3.50;2.00;;;;;;;;5124234;27;61949;-79
2022/05/23 00:51:09;;;;;;;;;4.00;3.25;;;;;;;;5123173;27;61938;-79
2022/05/23 00:53:38;;;;;;;;;4.50;3.00;;;;;;;;5114121;27;61899;-79
2022/05/23 00:56:05;;;;;;;;;3.50;2.25;;;;;;;;5123577;27;61867;-78
2022/05/23 00:58:32;;;;;;;;;4.25;3.50;;;;;;;;5122691;27;65242;-79
2022/05/23 01:00:59;;;;;;;;;6.75;4.75;;;;;;;;5123310;27;61802;-79
2022/05/23 01:03:24;;;;;;;;;5.50;3.50;;;;;;;;5125139;27;61956;-78
2022/05/23 01:05:54;;;;;;;;;2.00;2.00;;;;;;;;5124468;27;61825;-78
2022/05/23 01:08:20;;;;;;;;;3.00;3.00;;;;;;;;5122535;27;63857;-78
2022/05/23 01:10:46;;;;;;;;;2.25;2.25;;;;;;;;5124674;27;61910;-79
2022/05/23 01:13:11;;;;;;;;;2.25;2.25;;;;;;;;5124879;27;61923;-79
2022/05/23 01:15:37;;;;;;;;;4.00;2.00;;;;;;;;5124811;27;61864;-78
2022/05/23 01:18:02;;;;;;;;;2.00;1.00;;;;;;;;5124079;27;62113;-78
2022/05/23 01:20:29;;;;;;;;;2.00;1.25;;;;;;;;5122317;27;62126;-79
2022/05/23 01:22:57;;;;;;;;;2.00;2.00;;;;;;;;5124430;27;61880;-78
2022/05/23 01:25:25;;;;;;;;;1.00;1.00;;;;;;;;5124925;27;61813;-78
2022/05/23 01:27:51;;;;;;;;;3.00;3.00;;;;;;;;5123982;27;62032;-78
2022/05/23 01:30:17;;;;;;;;;2.00;2.00;;;;;;;;5124497;27;61787;-79
2022/05/23 01:32:42;;;;;;;;;1.00;1.00;;;;;;;;5124538;27;61837;-78
2022/05/23 01:35:09;;;;;;;;;1.50;1.00;;;;;;;;5123881;27;61928;-78
2022/05/23 01:37:34;;;;;;;;;3.50;1.75;;;;;;;;5122013;27;63524;-78
2022/05/23 01:40:00;;;;;;;;;2.00;2.00;;;;;;;;5124166;27;61836;-78
2022/05/23 01:42:25;;;;;;;;;1.50;1.50;;;;;;;;5124672;27;61740;-78
2022/05/23 01:44:50;;;;;;;;;3.00;2.25;;;;;;;;5124583;27;61743;-78
2022/05/23 01:47:16;;;;;;;;;0.75;0.75;;;;;;;;5122097;27;63789;-78
2022/05/23 01:49:42;;;;;;;;;2.00;2.00;;;;;;;;5124002;27;62088;-79
2022/05/23 01:52:08;;;;;;;;;3.00;2.00;;;;;;;;5120793;27;61946;-78
2022/05/23 01:54:34;;;;;;;;;5.00;3.25;;;;;;;;5115088;27;61808;-79
2022/05/23 01:57:00;;;;;;;;;2.00;2.00;;;;;;;;5123130;27;61978;-79
2022/05/23 02:02:09;;;;;;;;;2.00;2.00;;;;;;;;5124223;27;61835;-78
2022/05/23 02:04:34;;;;;;;;;3.00;2.25;;;;;;;;5123381;27;61885;-78
2022/05/23 02:07:00;;;;;;;;;3.00;3.00;;;;;;;;5122941;27;63037;-78
2022/05/23 02:09:28;;;;;;;;;2.00;2.00;;;;;;;;5124010;27;61697;-79
2022/05/23 02:11:54;;;;;;;;;4.00;3.00;;;;;;;;5123650;27;62115;-79
2022/05/23 02:14:19;;;;;;;;;2.00;2.00;;;;;;;;5118986;27;62118;-78
2022/05/23 02:16:44;;;;;;;;;6.75;5.25;;;;;;;;5118562;27;63756;-79
2022/05/23 02:19:10;;;;;;;;;3.50;3.00;;;;;;;;5101092;27;61835;-78
2022/05/23 02:21:35;;;;;;;;;3.75;3.75;;;;;;;;5102798;27;61970;-79
2022/05/23 02:24:03;;;;;;;;;2.00;2.00;;;;;;;;5118984;27;61907;-78
2022/05/23 02:26:29;;;;;;;;;4.00;3.50;;;;;;;;5102315;27;62008;-78
2022/05/23 02:28:54;;;;;;;;;3.75;3.00;;;;;;;;5102746;27;61829;-79
2022/05/23 02:31:19;;;;;;;;;6.50;4.75;;;;;;;;5103120;27;61882;-79
2022/05/23 02:33:44;;;;;;;;;5.75;4.50;;;;;;;;5118805;27;62052;-79
2022/05/23 02:36:09;;;;;;;;;6.00;5.25;;;;;;;;5101831;27;61728;-78
2022/05/23 02:38:35;;;;;;;;;4.00;4.00;;;;;;;;5102517;27;61738;-78
2022/05/23 02:41:00;;;;;;;;;3.50;3.50;;;;;;;;5101275;27;62228;-78
2022/05/23 02:43:27;;;;;;;;;3.50;3.50;;;;;;;;5103171;27;61868;-78
2022/05/23 02:45:52;;;;;;;;;4.75;4.75;;;;;;;;5102426;27;62650;-79
2022/05/23 02:48:17;;;;;;;;;5.75;4.50;;;;;;;;5102250;27;61794;-79
2022/05/23 02:50:43;;;;;;;;;5.00;5.00;;;;;;;;5102451;27;61946;-79
2022/05/23 02:53:08;;;;;;;;;3.50;3.50;;;;;;;;5112848;27;62358;-78
2022/05/23 02:55:33;;;;;;;;;4.00;4.00;;;;;;;;5122629;27;61769;-78
2022/05/23 02:57:59;;;;;;;;;5.75;5.75;;;;;;;;5123146;27;61865;-78
2022/05/23 03:00:24;;;;;;;;;6.00;6.00;;;;;;;;5121527;27;61942;-79
2022/05/23 03:03:02;;;;;;;;;4.00;4.00;;;;;;;;5123391;27;61854;-79
2022/05/23 03:05:28;;;;;;;;;1.50;1.00;;;;;;;;5122210;27;63146;-79
2022/05/23 03:07:53;;;;;;;;;3.00;3.00;;;;;;;;5122748;27;61842;-78
2022/05/23 03:10:19;;;;;;;;;6.00;5.00;;;;;;;;5122712;27;62020;-79
2022/05/23 03:12:45;;;;;;;;;5.50;3.25;;;;;;;;5123269;27;61772;-78
2022/05/23 03:15:11;;;;;;;;;6.50;4.50;;;;;;;;5122034;27;62065;-79
2022/05/23 03:17:36;;;;;;;;;10.00;8.25;;;;;;;;5124325;27;61954;-78
2022/05/23 03:20:02;;;;;;;;;8.25;6.00;;;;;;;;5126376;27;62347;-79
2022/05/23 03:27:56;;;;;;;;;4.00;3.00;;;;;;;;5126537;27;61688;-79
2022/05/23 03:30:21;;;;;;;;;6.50;5.00;;;;;;;;5126069;27;61650;-78
2022/05/23 03:32:46;;;;;;;;;7.75;6.00;;;;;;;;5125406;27;61955;-79
2022/05/23 03:35:12;;;;;;;;;4.00;3.75;;;;;;;;5125429;27;61927;-79
2022/05/23 03:37:37;;;;;;;;;5.75;4.50;;;;;;;;5124906;27;61826;-79
2022/05/23 03:40:06;;;;;;;;;11.00;6.75;;;;;;;;5126245;27;62191;-78
2022/05/23 03:42:32;;;;;;;;;9.50;5.75;;;;;;;;5126445;27;61835;-79
2022/05/23 03:44:58;;;;;;;;;5.50;4.50;;;;;;;;5123875;27;63694;-79
2022/05/23 03:47:26;;;;;;;;;5.25;4.25;;;;;;;;5124597;27;62203;-78
2022/05/23 03:49:51;;;;;;;;;6.00;5.00;;;;;;;;5124737;27;62108;-79
2022/05/23 03:52:17;;;;;;;;;4.00;4.00;;;;;;;;5123064;27;61805;-79
2022/05/23 03:54:42;;;;;;;;;5.75;5.00;;;;;;;;5117249;27;62980;-78
2022/05/23 03:57:07;;;;;;;;;4.25;4.00;;;;;;;;5125708;27;61763;-78
2022/05/23 03:59:33;;;;;;;;;6.00;3.50;;;;;;;;5124422;27;61925;-79
2022/05/23 04:01:58;;;;;;;;;5.50;4.00;;;;;;;;5126473;27;61680;-79
2022/05/23 04:04:24;;;;;;;;;7.25;4.00;;;;;;;;5123883;27;63709;-79
2022/05/23 04:06:49;;;;;;;;;4.25;4.25;;;;;;;;5125606;27;61902;-78
2022/05/23 04:09:15;;;;;;;;;6.00;4.75;;;;;;;;5125481;27;62007;-78
2022/05/23 04:11:40;;;;;;;;;6.75;5.00;;;;;;;;5126042;27;61931;-79
2022/05/23 04:14:05;;;;;;;;;5.25;3.75;;;;;;;;5119212;27;63668;-78
2022/05/23 04:16:31;;;;;;;;;4.25;3.75;;;;;;;;5104896;27;61937;-78
2022/05/23 04:18:56;;;;;;;;;4.75;4.75;;;;;;;;5105207;27;62001;-78
2022/05/23 04:21:22;;;;;;;;;4.50;4.50;;;;;;;;5104769;27;61912;-79
2022/05/23 04:23:48;;;;;;;;;5.25;4.00;;;;;;;;5104607;27;62054;-79
2022/05/23 04:26:13;;;;;;;;;9.75;5.75;;;;;;;;5104951;27;62090;-78
2022/05/23 04:28:41;;;;;;;;;7.75;5.75;;;;;;;;5102913;27;61982;-78
2022/05/23 04:31:08;;;;;;;;;12.25;5.75;;;;;;;;5105098;27;61979;-78
2022/05/23 04:36:17;;;;;;;;;11.00;10.00;;;;;;;;5104215;27;61961;-78
2022/05/23 04:38:43;;;;;;;;;17.25;11.00;;;;;;;;5103240;27;61756;-78
2022/05/23 04:41:08;;;;;;;;;15.50;11.75;;;;;;;;5104842;27;61895;-78
2022/05/23 04:43:33;;;;;;;;;14.00;12.00;;;;;;;;5103578;27;61813;-78
2022/05/23 04:45:59;;;;;;;;;11.75;11.75;;;;;;;;5104998;27;61778;-78
2022/05/23 04:51:08;;;;;;;;;9.00;8.75;;;;;;;;5104473;27;62171;-78
2022/05/23 04:53:34;;;;;;;;;8.75;8.00;;;;;;;;5117540;27;62754;-79
2022/05/23 04:56:00;;;;;;;;;11.25;10.00;;;;;;;;5125972;27;62105;-78
2022/05/23 04:58:25;;;;;;;;;10.25;10.25;;;;;;;;5126079;27;62111;-78
2022/05/23 05:00:51;;;;;;;;;9.50;8.50;;;;;;;;5124508;27;62013;-81
2022/05/23 05:03:16;;;;;;;;;11.50;11.25;;;;;;;;5124079;27;62291;-80
2022/05/23 05:05:41;;;;;;;;;8.00;7.25;;;;;;;;5123789;27;62112;-87
2022/05/23 05:08:07;;;;;;;;;11.25;8.00;;;;;;;;5122571;27;62026;-81
2022/05/23 05:10:32;;;;;;;;;9.00;7.00;;;;;;;;5122916;27;62418;-81
2022/05/23 05:12:58;;;;;;;;;6.25;6.00;;;;;;;;5124003;27;62932;-82
2022/05/23 05:15:24;;;;;;;;;6.25;6.25;;;;;;;;5124643;27;61929;-83
2022/05/23 05:17:49;;;;;;;;;4.25;4.25;;;;;;;;5124977;27;61792;-83
2022/05/23 05:20:16;;;;;;;;;6.75;6.00;;;;;;;;5124451;27;62101;-83
2022/05/23 05:22:41;;;;;;;;;6.00;6.00;;;;;;;;5122683;27;61756;-83
2022/05/23 05:25:08;;;;;;;;;5.25;5.25;;;;;;;;5124363;27;61946;-83
2022/05/23 05:27:33;;;;;;;;;8.25;5.75;;;;;;;;5124253;27;61862;-82
2022/05/23 05:29:59;;;;;;;;;8.75;4.75;;;;;;;;5123378;27;61739;-81
2022/05/23 05:32:31;;;;;;;;;5.00;4.00;;;;;;;;5121748;27;64096;-84
2022/05/23 05:35:03;;;;;;;;;4.00;4.00;;;;;;;;5123594;27;61755;-82
2022/05/23 05:37:36;;;;;;;;;6.00;3.75;;;;;;;;5121738;27;61849;-82
2022/05/23 05:40:07;;;;;;;;;5.00;5.00;;;;;;;;5117976;27;62205;-82
2022/05/23 05:42:36;;;;;;;;;7.25;6.00;;;;;;;;5121013;27;62338;-82
2022/05/23 05:45:05;;;;;;;;;4.75;4.75;;;;;;;;5122284;27;62023;-82
2022/05/23 05:47:32;;;;;;;;;4.00;3.00;;;;;;;;5122048;27;62061;-83
2022/05/23 05:50:00;;;;;;;;;13.25;11.25;;;;;;;;5123372;27;61921;-83
2022/05/23 05:52:28;;;;;;;;;1.00;1.00;;;;;;;;5121162;27;62010;-83
2022/05/23 05:54:54;;;;;;;;;8.00;4.00;;;;;;;;5123051;27;62213;-83
2022/05/23 05:57:20;;;;;;;;;7.50;5.00;;;;;;;;5122333;27;61782;-83
2022/05/23 05:59:45;;;;;;;;;5.50;4.75;;;;;;;;5123452;27;62072;-80
2022/05/23 06:02:11;;;;;;;;;5.00;5.00;;;;;;;;5123109;27;63205;-84
2022/05/23 06:04:36;;;;;;;;;7.00;6.00;;;;;;;;5122303;27;62159;-83
2022/05/23 06:12:31;;;;;;;;;9.25;5.75;;;;;;;;5122775;27;62279;-79
2022/05/23 06:14:57;;;;;;;;;5.00;5.00;;;;;;;;5119969;27;61867;-78
2022/05/23 06:17:22;;;;;;;;;9.25;5.75;;;;;;;;5123807;27;61705;-78
2022/05/23 06:19:48;;;;;;;;;5.00;4.50;;;;;;;;5122973;27;62113;-80
2022/05/23 06:22:14;;;;;;;;;5.00;3.50;;;;;;;;5122282;27;62738;-76
2022/05/23 06:24:40;;;;;;;;;4.00;2.25;;;;;;;;5123143;27;62035;-75
2022/05/23 06:27:06;;;;;;;;;4.75;4.75;;;;;;;;5123698;27;62006;-75
2022/05/23 06:29:32;;;;;;;;;3.25;2.25;;;;;;;;5123801;27;61717;-76
2022/05/23 06:31:57;;;;;;;;;3.00;2.75;;;;;;;;5123062;27;61933;-76
2022/05/23 06:34:23;;;;;;;;;5.25;4.25;;;;;;;;5123769;27;61936;-76
2022/05/23 06:36:48;;;;;;;;;3.00;2.75;;;;;;;;5122067;27;61739;-76
2022/05/23 06:39:13;;;;;;;;;6.00;4.00;;;;;;;;5123274;27;61885;-76
2022/05/23 06:41:38;;;;;;;;;3.75;3.75;;;;;;;;5122824;27;61838;-76
2022/05/23 06:44:04;;;;;;;;;3.75;2.50;;;;;;;;5123794;27;61788;-77
2022/05/23 06:46:29;;;;;;;;;2.75;2.75;;;;;;;;5123593;27;61827;-76
2022/05/23 06:48:55;;;;;;;;;3.00;3.00;;;;;;;;5123582;27;62001;-83
2022/05/23 06:51:20;;;;;;;;;3.75;3.75;;;;;;;;5121945;27;62566;-75
2022/05/23 06:53:45;;;;;;;;;8.00;3.00;;;;;;;;5111050;27;62117;-76
2022/05/23 06:56:12;;;;;;;;;6.00;4.00;;;;;;;;5122487;27;62052;-75
2022/05/23 06:58:38;;;;;;;;;3.50;3.50;;;;;;;;5122374;27;62330;-75
2022/05/23 07:01:03;;;;;;;;;5.00;4.00;;;;;;;;5121602;27;62086;-76
2022/05/23 07:03:28;;;;;;;;;5.00;5.00;;;;;;;;5123445;27;62100;-75
2022/05/23 07:14:07;;;;;;;;;5.50;5.50;;;;;;;;5099832;27;62750;-75
2022/05/23 07:16:33;;;;;;;;;7.00;5.50;;;;;;;;5099847;27;62244;-75
2022/05/23 07:18:58;;;;;;;;;6.00;5.00;;;;;;;;5099730;27;62197;-76
2022/05/23 07:21:26;;;;;;;;;7.00;5.00;;;;;;;;5081405;27;64267;-75
2022/05/23 07:23:52;;;;;;;;;3.75;3.75;;;;;;;;5098443;27;61968;-76
2022/05/23 07:26:17;;;;;;;;;6.50;4.25;;;;;;;;5098986;27;61787;-76
2022/05/23 07:28:43;;;;;;;;;4.50;4.50;;;;;;;;5091625;27;61845;-76
2022/05/23 07:31:09;;;;;;;;;6.75;6.00;;;;;;;;5061359;28;63537;-76
2022/05/23 07:33:34;;;;;;;;;6.00;4.00;;;;;;;;5079143;27;62263;-76
2022/05/23 07:36:01;;;;;;;;;8.75;3.75;;;;;;;;5097221;27;62624;-76
2022/05/23 07:38:28;;;;;;;;;4.00;4.00;;;;;;;;5081776;27;61780;-76
2022/05/23 07:40:53;;;;;;;;;4.75;4.75;;;;;;;;5081600;27;63610;-76
2022/05/23 07:43:19;;;;;;;;;3.75;3.75;;;;;;;;5099642;27;62301;-76
2022/05/23 07:45:45;;;;;;;;;5.00;3.75;;;;;;;;5082198;27;61816;-76
2022/05/23 07:48:10;;;;;;;;;4.00;3.75;;;;;;;;5100726;27;61952;-76
2022/05/23 07:50:36;;;;;;;;;5.50;5.50;;;;;;;;5107797;27;62060;-76
2022/05/23 08:01:14;;;;;;;;;3.50;3.50;;;;;;;;5119387;27;61705;-76
2022/05/23 08:03:40;;;;;;;;;4.25;4.25;;;;;;;;5124580;27;61847;-76
2022/05/23 08:06:05;;;;;;;;;6.50;4.50;;;;;;;;5124993;27;61849;-76
2022/05/23 08:08:31;;;;;;;;;6.75;4.00;;;;;;;;5125510;27;61948;-76
2022/05/23 08:10:57;;;;;;;;;5.50;4.75;;;;;;;;5124958;27;62979;-76
2022/05/23 08:13:22;;;;;;;;;3.75;3.75;;;;;;;;5124689;27;61820;-76
2022/05/23 08:15:47;;;;;;;;;3.00;2.00;;;;;;;;5124498;27;61998;-77
2022/05/23 08:18:16;;;;;;;;;5.00;4.00;;;;;;;;5124670;27;61772;-76
2022/05/23 08:20:41;;;;;;;;;5.50;4.50;;;;;;;;5124700;27;61835;-77
2022/05/23 08:23:06;;;;;;;;;5.00;5.00;;;;;;;;5125618;27;61891;-77
2022/05/23 08:25:32;;;;;;;;;5.00;5.00;;;;;;;;5125977;27;62088;-76
2022/05/23 08:27:57;;;;;;;;;10.00;6.50;;;;;;;;5125482;27;61763;-76
2022/05/23 08:30:23;;;;;;;;;5.00;5.00;;;;;;;;5124035;27;62587;-76
2022/05/23 08:32:49;;;;;;;;;6.50;6.50;;;;;;;;5125113;27;61837;-76
2022/05/23 08:35:15;;;;;;;;;6.50;6.50;;;;;;;;5125354;27;61723;-76
2022/05/23 08:37:41;;;;;;;;;5.00;4.50;;;;;;;;5123632;27;62010;-76
2022/05/23 08:40:08;;;;;;;;;5.25;5.25;;;;;;;;5123026;27;63724;-76
2022/05/23 08:42:48;;;;;;;;;6.50;6.50;;;;;;;;5125444;27;62109;-76
2022/05/23 08:45:15;;;;;;;;;6.25;6.25;;;;;;;;5125366;27;62235;-76
2022/05/23 08:47:47;;;;;;;;;7.00;5.00;;;;;;;;5125351;27;61847;-76
2022/05/23 08:50:15;;;;;;;;;4.25;4.25;;;;;;;;5122659;27;63713;-76
2022/05/23 08:52:46;;;;;;;;;5.00;4.75;;;;;;;;5124739;27;61929;-76
2022/05/23 08:55:18;;;;;;;;;5.50;4.25;;;;;;;;5124663;27;62023;-76
2022/05/23 08:58:00;;;;;;;;;6.25;4.25;;;;;;;;5125266;27;61825;-76
2022/05/23 09:00:38;;;;;;;;;6.25;5.75;;;;;;;;5122924;27;64085;-76
2022/05/23 09:03:12;;;;;;;;;7.75;7.25;;;;;;;;5124599;27;61748;-76
2022/05/23 09:05:40;;;;;;;;;7.00;5.75;;;;;;;;5124619;27;61850;-76
2022/05/23 09:08:08;;;;;;;;;8.00;7.50;;;;;;;;5125060;27;61749;-76
2022/05/23 09:10:40;;;;;;;;;7.50;7.50;;;;;;;;5124174;27;61999;-76
2022/05/23 09:13:07;;;;;;;;;7.00;5.50;;;;;;;;5124266;27;61889;-76
2022/05/23 09:15:33;;;;;;;;;7.50;6.25;;;;;;;;5124102;27;62511;-75
2022/05/23 09:18:00;;;;;;;;;5.75;5.75;;;;;;;;5124791;27;61904;-76
2022/05/23 09:20:45;;;;;;;;;8.00;7.75;;;;;;;;5123810;27;62990;-76
2022/05/23 09:23:20;;;;;;;;;8.75;7.00;;;;;;;;5123208;27;61937;-76
2022/05/23 09:25:49;;;;;;;;;8.50;8.00;;;;;;;;5124618;27;61627;-76
2022/05/23 09:28:20;;;;;;;;;10.50;7.75;;;;;;;;5124459;27;61973;-78
2022/05/23 09:30:48;;;;;;;;;9.25;7.00;;;;;;;;5124125;27;61688;-78
2022/05/23 09:33:18;;;;;;;;;10.00;8.00;;;;;;;;5124239;27;61661;-78
2022/05/23 09:35:46;;;;;;;;;11.00;9.75;;;;;;;;5124298;27;62155;-78
2022/05/23 09:38:17;;;;;;;;;11.75;11.50;;;;;;;;5124056;27;61797;-78
2022/05/23 09:40:43;;;;;;;;;8.25;6.00;;;;;;;;5101895;27;64006;-78
2022/05/23 09:49:07;;;;;;;;;11.50;7.25;;;;;;;;5103807;27;61873;-78
2022/05/23 09:51:46;;;;;;;;;9.00;7.00;;;;;;;;5103013;27;61761;-78
2022/05/23 09:54:17;;;;;;;;;10.75;8.75;;;;;;;;5120393;27;61814;-78
2022/05/23 09:56:42;;;;;;;;;10.25;8.75;;;;;;;;5123028;27;61992;-78
2022/05/23 09:59:20;;;;;;;;;12.50;9.75;;;;;;;;5124286;27;61704;-78
2022/05/23 10:01:45;;;;;;;;;9.25;8.25;;;;;;;;5123091;27;61826;-78
2022/05/23 10:04:17;;;;;;;;;12.50;10.25;;;;;;;;5123307;27;61734;-78
2022/05/23 10:06:48;;;;;;;;;11.75;10.75;;;;;;;;5122559;27;61919;-78
2022/05/23 10:09:26;;;;;;;;;13.75;12.00;;;;;;;;5123994;27;61924;-78
2022/05/23 10:12:04;;;;;;;;;11.50;8.00;;;;;;;;5123501;27;61995;-78
2022/05/23 10:14:42;;;;;;;;;9.00;9.00;;;;;;;;5123876;27;62133;-78
2022/05/23 10:17:08;;;;;;;;;11.25;11.00;;;;;;;;5123448;27;61780;-78
2022/05/23 10:19:35;;;;;;;;;10.00;9.50;;;;;;;;5124112;27;61807;-78
2022/05/23 10:22:10;;;;;;;;;12.50;9.75;;;;;;;;5123223;27;62140;-78
2022/05/23 10:24:37;;;;;;;;;10.00;9.75;;;;;;;;5121600;27;61990;-78
2022/05/23 10:27:09;;;;;;;;;12.00;9.00;;;;;;;;5122799;27;61806;-78
2022/05/23 10:29:35;;;;;;;;;11.50;9.50;;;;;;;;5119549;27;61849;-76
2022/05/23 10:32:07;;;;;;;;;8.75;8.75;;;;;;;;5122507;27;62239;-77
2022/05/23 10:34:50;;;;;;;;;11.75;9.25;;;;;;;;5123350;27;61989;-76
2022/05/23 10:37:20;;;;;;;;;10.75;10.75;;;;;;;;5121106;27;62149;-76
2022/05/23 10:42:30;;;;;;;;;14.00;11.50;;;;;;;;5121805;27;61763;-75
2022/05/23 10:45:18;;;;;;;;;11.75;11.00;;;;;;;;5122864;27;61863;-76
2022/05/23 10:47:52;;;;;;;;;11.00;11.00;;;;;;;;5119624;27;61751;-74
2022/05/23 10:50:20;;;;;;;;;10.00;8.75;;;;;;;;5123037;27;61970;-75
2022/05/23 10:52:48;;;;;;;;;10.75;9.25;;;;;;;;5120682;27;61792;-74
2022/05/23 10:55:17;;;;;;;;;10.00;10.00;;;;;;;;5120148;27;61866;-75
2022/05/23 10:57:42;;;;;;;;;16.75;14.25;;;;;;;;5122812;27;61787;-75
2022/05/23 11:00:19;;;;;;;;;11.00;11.00;;;;;;;;5122748;27;61950;-76
2022/05/23 11:02:44;;;;;;;;;12.75;11.75;;;;;;;;5120953;27;63934;-75
2022/05/23 11:05:12;;;;;;;;;11.00;11.00;;;;;;;;5121610;27;61730;-74
2022/05/23 11:07:47;;;;;;;;;12.50;11.50;;;;;;;;5120978;27;62031;-75
2022/05/23 11:10:21;;;;;;;;;16.00;12.00;;;;;;;;5123381;27;61941;-74
2022/05/23 11:12:46;;;;;;;;;11.25;9.00;;;;;;;;5122310;27;63154;-76
2022/05/23 11:15:21;;;;;;;;;13.00;11.00;;;;;;;;5122019;27;61844;-76
2022/05/23 11:17:55;;;;;;;;;13.50;11.00;;;;;;;;5122794;27;61861;-76
2022/05/23 11:20:34;;;;;;;;;15.75;13.00;;;;;;;;5119268;27;62148;-75
2022/05/23 11:23:18;;;;;;;;;11.50;10.00;;;;;;;;5121812;27;61930;-76
2022/05/23 11:25:45;;;;;;;;;10.75;10.75;;;;;;;;5122423;27;62307;-75
2022/05/23 11:33:58;;;;;;;;;18.00;16.25;;;;;;;;5121117;27;62328;-76
2022/05/23 11:36:34;;;;;;;;;18.00;14.50;;;;;;;;5122061;27;62023;-78
2022/05/23 11:38:59;;;;;;;;;16.25;12.50;;;;;;;;5126084;27;61751;-82
2022/05/23 11:41:32;;;;;;;;;17.75;13.50;;;;;;;;5125311;27;62195;-80
2022/05/23 11:43:58;;;;;;;;;18.25;14.50;;;;;;;;5125111;27;62745;-74
2022/05/23 11:46:27;;;;;;;;;12.75;12.75;;;;;;;;5126185;27;62007;-74
2022/05/23 11:48:58;;;;;;;;;16.75;14.00;;;;;;;;5126619;27;61906;-75
2022/05/23 11:51:23;;;;;;;;;19.50;15.00;;;;;;;;5126101;27;62008;-74
2022/05/23 11:54:01;;;;;;;;;20.50;16.75;;;;;;;;5125390;27;63091;-74
2022/05/23 11:56:38;;;;;;;;;15.25;14.75;;;;;;;;5125624;27;62111;-74
2022/05/23 11:59:06;;;;;;;;;22.00;17.25;;;;;;;;5124889;27;61854;-74
2022/05/23 12:01:32;;;;;;;;;11.25;10.50;;;;;;;;5124870;27;61762;-74
2022/05/23 12:03:58;;;;;;;;;17.00;15.00;;;;;;;;5125619;27;62757;-74
2022/05/23 12:06:23;;;;;;;;;13.25;11.50;;;;;;;;5125635;27;61815;-74
2022/05/23 12:08:57;;;;;;;;;16.25;11.25;;;;;;;;5125958;27;61797;-75
2022/05/23 12:11:23;;;;;;;;;14.50;9.25;;;;;;;;5126076;27;61921;-75
2022/05/23 12:13:51;;;;;;;;;19.00;16.50;;;;;;;;5123822;27;63782;-74
2022/05/23 12:16:26;;;;;;;;;22.75;18.00;;;;;;;;5124372;27;62002;-75
2022/05/23 12:19:11;;;;;;;;;13.75;13.75;;;;;;;;5124006;27;61961;-74
2022/05/23 12:21:36;;;;;;;;;16.25;14.50;;;;;;;;5125679;27;62018;-74
2022/05/23 12:24:17;;;;;;;;;11.00;9.75;;;;;;;;5125303;27;61780;-74
2022/05/23 12:26:46;;;;;;;;;18.25;15.00;;;;;;;;5125385;27;61916;-74
2022/05/23 12:29:31;;;;;;;;;14.25;12.75;;;;;;;;5120938;27;61970;-74
2022/05/23 12:32:15;;;;;;;;;8.25;5.00;;;;;;;;5103768;27;61887;-74
2022/05/23 12:34:42;;;;;;;;;10.50;10.50;;;;;;;;5104310;27;63138;-74
2022/05/23 12:37:13;;;;;;;;;21.00;12.25;;;;;;;;5104075;27;62071;-74
2022/05/23 12:39:50;;;;;;;;;12.00;11.00;;;;;;;;5107799;27;61940;-74
2022/05/23 12:42:27;;;;;;;;;7.75;7.75;;;;;;;;5125550;27;61973;-73
2022/05/23 12:45:11;;;;;;;;;14.00;10.00;;;;;;;;5123444;27;64635;-74
2022/05/23 12:47:42;;;;;;;;;12.50;11.50;;;;;;;;5125461;27;61744;-73
2022/05/23 12:50:10;;;;;;;;;14.75;10.50;;;;;;;;5125416;27;62172;-74
2022/05/23 12:52:58;;;;;;;;;14.25;11.00;;;;;;;;5123326;27;62070;-74
2022/05/23 12:55:26;;;;;;;;;12.75;9.50;;;;;;;;5124439;27;62586;-74
2022/05/23 12:58:10;;;;;;;;;14.75;12.00;;;;;;;;5124729;27;61643;-74
2022/05/23 13:00:38;;;;;;;;;12.50;12.00;;;;;;;;5124970;27;61744;-73
2022/05/23 13:03:23;;;;;;;;;11.00;10.00;;;;;;;;5124819;27;61760;-74
2022/05/23 13:05:55;;;;;;;;;18.50;13.00;;;;;;;;5119055;27;63192;-74
2022/05/23 13:08:40;;;;;;;;;11.00;9.00;;;;;;;;5123015;27;61816;-76
2022/05/23 13:11:11;;;;;;;;;10.75;10.75;;;;;;;;5108809;27;62126;-75
2022/05/23 13:13:39;;;;;;;;;9.00;9.00;;;;;;;;5123565;27;62144;-75
2022/05/23 13:16:17;;;;;;;;;11.50;10.75;;;;;;;;5121404;27;62885;-75
2022/05/23 13:24:14;;;;;;;;;10.25;10.25;;;;;;;;5122814;27;62018;-76
2022/05/23 13:26:39;;;;;;;;;9.25;8.50;;;;;;;;5122664;27;62544;-76
2022/05/23 13:29:10;;;;;;;;;8.50;8.50;;;;;;;;5121726;27;62100;-75
2022/05/23 13:31:35;;;;;;;;;7.50;7.25;;;;;;;;5122930;27;61939;-75
2022/05/23 13:34:01;;;;;;;;;10.00;7.75;;;;;;;;5121715;27;61922;-75
2022/05/23 13:36:39;;;;;;;;;5.25;5.25;;;;;;;;5122251;27;61805;-75
2022/05/23 13:39:06;;;;;;;;;4.00;4.00;;;;;;;;5118356;27;61943;-76
2022/05/23 13:41:31;;;;;;;;;8.75;6.50;;;;;;;;5122027;27;62042;-76
2022/05/23 13:43:58;;;;;;;;;9.25;6.00;;;;;;;;5120398;27;61921;-76
2022/05/23 13:46:33;;;;;;;;;5.00;5.00;;;;;;;;5121080;27;63805;-76
2022/05/23 13:49:02;;;;;;;;;4.67;4.67;;;;;;;;5120275;27;62311;-76
2022/05/23 13:51:38;;;;;;;;;4.50;3.00;;;;;;;;5121923;27;62037;-76
2022/05/23 13:54:09;;;;;;;;;5.00;5.00;;;;;;;;5119259;27;61809;-75
2022/05/23 13:56:35;;;;;;;;;4.50;3.50;;;;;;;;5121869;27;61934;-76
2022/05/23 13:59:06;;;;;;;;;6.25;5.75;;;;;;;;5120521;27;61662;-76
2022/05/23 14:01:42;;;;;;;;;3.25;3.25;;;;;;;;5120379;27;61997;-76
2022/05/23 14:04:09;;;;;;;;;5.67;3.00;;;;;;;;5121331;27;61705;-76
2022/05/23 14:06:40;;;;;;;;;3.00;3.00;;;;;;;;5121344;27;62818;-76
2022/05/23 14:09:07;;;;;;;;;5.25;5.25;;;;;;;;5122350;27;61941;-76
2022/05/23 14:11:37;;;;;;;;;8.25;6.00;;;;;;;;5121199;27;62012;-77
2022/05/23 14:14:15;;;;;;;;;3.50;3.00;;;;;;;;5123257;27;61915;-76
2022/05/23 14:16:52;;;;;;;;;5.50;4.25;;;;;;;;5121322;27;62990;-76
2022/05/23 14:19:20;;;;;;;;;4.75;3.50;;;;;;;;5123761;27;61687;-76
2022/05/23 14:21:48;;;;;;;;;3.00;2.00;;;;;;;;5123100;27;61799;-77
2022/05/23 14:24:15;;;;;;;;;4.00;3.50;;;;;;;;5122260;27;61990;-76
2022/05/23 14:26:40;;;;;;;;;1.25;1.25;;;;;;;;5123239;27;61814;-76
2022/05/23 14:29:11;;;;;;;;;4.25;2.50;;;;;;;;5118552;27;62110;-76
2022/05/23 14:31:42;;;;;;;;;4.25;1.50;;;;;;;;5103056;27;61737;-76
2022/05/23 14:34:13;;;;;;;;;3.25;2.50;;;;;;;;5103105;27;61693;-76
2022/05/23 14:36:38;;;;;;;;;3.50;3.50;;;;;;;;5102071;27;61875;-75
2022/05/23 14:39:06;;;;;;;;;2.75;2.75;;;;;;;;5102419;27;61844;-76
2022/05/23 14:41:34;;;;;;;;;3.00;3.00;;;;;;;;5102920;27;61852;-76
2022/05/23 14:44:01;;;;;;;;;3.00;3.00;;;;;;;;5102710;27;61779;-76
2022/05/23 14:46:28;;;;;;;;;5.50;3.50;;;;;;;;5101746;27;62819;-76
2022/05/23 14:48:59;;;;;;;;;3.25;3.25;;;;;;;;5118501;27;61776;-76
2022/05/23 14:51:35;;;;;;;;;2.00;2.00;;;;;;;;5120834;27;61744;-76
2022/05/23 14:56:58;;;;;;;;;4.75;3.00;;;;;;;;5120614;27;61855;-76
2022/05/23 15:02:15;;;;;;;;;2.50;2.50;;;;;;;;5122845;27;61836;-78
2022/05/23 15:04:42;;;;;;;;;2.00;2.00;;;;;;;;5123440;27;61742;-78
2022/05/23 15:07:08;;;;;;;;;2.75;2.00;;;;;;;;5119658;27;62280;-74
2022/05/23 15:09:33;;;;;;;;;3.25;2.50;;;;;;;;5121485;27;62068;-76
2022/05/23 15:11:58;;;;;;;;;4.00;3.00;;;;;;;;5120269;27;62260;-78
2022/05/23 15:14:24;;;;;;;;;2.50;2.00;;;;;;;;5121600;27;61894;-78
2022/05/23 15:16:50;;;;;;;;;2.00;2.00;;;;;;;;5122383;27;63703;-83
2022/05/23 15:19:18;;;;;;;;;2.00;2.00;;;;;;;;5123891;27;61950;-75
2022/05/23 15:21:44;;;;;;;;;2.00;2.00;;;;;;;;5122717;27;61717;-75
2022/05/23 15:24:11;;;;;;;;;1.25;1.25;;;;;;;;5125613;27;61772;-76
2022/05/23 15:26:38;;;;;;;;;4.00;1.75;;;;;;;;5124501;27;61760;-78
2022/05/23 15:29:03;;;;;;;;;3.00;2.00;;;;;;;;5124473;27;61875;-78
2022/05/23 15:31:30;;;;;;;;;3.00;3.00;;;;;;;;5124750;27;61973;-78
2022/05/23 15:33:57;;;;;;;;;4.75;2.75;;;;;;;;5125670;27;61803;-78
2022/05/23 15:36:22;;;;;;;;;2.50;2.50;;;;;;;;5123523;27;62162;-78
2022/05/23 15:38:47;;;;;;;;;2.00;2.00;;;;;;;;5124090;27;61900;-78
2022/05/23 15:41:14;;;;;;;;;3.25;3.25;;;;;;;;5123906;27;61887;-78
2022/05/23 15:43:39;;;;;;;;;3.00;3.00;;;;;;;;5123534;27;62030;-78
2022/05/23 15:46:09;;;;;;;;;3.00;3.00;;;;;;;;5124048;27;61728;-78
2022/05/23 15:48:34;;;;;;;;;3.00;2.00;;;;;;;;5123698;27;62045;-78
2022/05/23 15:51:00;;;;;;;;;5.50;4.00;;;;;;;;5123528;27;62157;-78